Time,TemperatureF,DewpointF,PressureIn,WindDirection,WindDirectionDegrees,WindSpeedMPH,WindSpeedGustMPH,Humidity,HourlyPrecipIn,Conditions,Clouds,dailyrainin,SolarRadiationWatts/m^2,SoftwareType,DateUTC
2013-02-19 00:00:00,47.5,37.8,29.58,South,172,20.7,20.7,69,0.00,RA,,0.00,0.0,WeatherDisplay:10.37,2013-02-19 05:00:00,
2013-02-19 00:01:00,47.6,37.9,29.58,South,178,18.4,18.4,69,0.00,RA,,0.00,0.0,WeatherDisplay:10.37,2013-02-19 05:01:00,
2013-02-19 00:06:00,47.8,38.1,29.58,SSW,201,15.0,15.0,69,0.00,RA,,0.00,0.0,WeatherDisplay:10.37,2013-02-19 05:06:00,
2013-02-19 00:11:00,47.6,38.7,29.58,SW,228,22.0,22.0,71,0.00,CLR,,0.00,0.0,WeatherDisplay:10.37,2013-02-19 05:11:00,
2013-02-19 00:16:00,47.2,39.3,29.58,SSE,158,20.7,20.7,74,0.00,CLR,,0.00,0.0,WeatherDisplay:10.37,2013-02-19 05:16:00,
2013-02-19 00:21:00,46.5,39.7,29.57,SSW,205,24.2,24.2,77,0.00,RA,,0.01,0.0,WeatherDisplay:10.37,2013-02-19 05:21:00,
2013-02-19 00:26:00,45.9,39.8,29.57,SSW,200,18.4,18.4,79,0.00,RA,,0.01,0.0,WeatherDisplay:10.37,2013-02-19 05:26:00,
2013-02-19 00:31:00,45.4,39.9,29.57,SW,226,18.4,18.4,81,0.00,,,0.01,0.0,WeatherDisplay:10.37,2013-02-19 05:31:00,
2013-02-19 00:36:00,45.1,39.9,29.57,South,178,21.9,21.9,82,0.00,CLR,,0.01,0.0,WeatherDisplay:10.37,2013-02-19 05:36:00,
2013-02-19 00:41:00,44.9,40.0,29.56,SSW,200,17.3,17.3,83,0.01,RA,,0.02,0.0,WeatherDisplay:10.37,2013-02-19 05:41:00,
2013-02-19 00:46:00,44.5,40.0,29.56,SSW,194,21.9,21.9,84,0.01,RA,,0.03,0.0,WeatherDisplay:10.37,2013-02-19 05:46:00,
2013-02-19 00:51:00,44.4,39.9,29.55,West,261,11.5,11.5,84,0.02,RA,,0.03,0.0,WeatherDisplay:10.37,2013-02-19 05:51:00,
2013-02-19 00:56:00,44.3,40.1,29.54,SSW,206,17.3,17.3,85,0.02,RA,,0.03,0.0,WeatherDisplay:10.37,2013-02-19 05:56:00,
2013-02-19 01:01:00,44.4,40.2,29.53,South,186,25.3,25.3,85,0.03,CLR,,0.03,0.0,WeatherDisplay:10.37,2013-02-19 06:01:00,
2013-02-19 01:06:00,44.6,40.1,29.54,SSW,212,24.2,24.2,84,0.03,CLR,,0.03,0.0,WeatherDisplay:10.37,2013-02-19 06:06:00,
2013-02-19 01:12:00,44.6,40.4,29.53,SSW,205,19.6,19.6,85,0.03,CLR,,0.03,0.0,WeatherDisplay:10.37,2013-02-19 06:12:00,
2013-02-19 01:17:00,44.4,40.2,29.53,SSE,159,16.1,16.1,85,0.03,CLR,,0.03,0.0,WeatherDisplay:10.37,2013-02-19 06:17:00,
2013-02-19 01:22:00,44.3,40.1,29.52,SSW,192,24.2,24.2,85,0.03,RA,,0.04,0.0,WeatherDisplay:10.37,2013-02-19 06:22:00,
2013-02-19 01:27:00,44.1,39.9,29.52,SSW,194,20.7,20.7,85,0.03,RA,,0.04,0.0,WeatherDisplay:10.37,2013-02-19 06:27:00,
2013-02-19 01:32:00,44.0,40.1,29.51,SSW,203,18.4,18.4,86,0.03,CLR,,0.04,0.0,WeatherDisplay:10.37,2013-02-19 06:32:00,
2013-02-19 01:37:00,43.8,39.9,29.51,SSW,196,19.6,19.6,86,0.03,CLR,,0.04,0.0,WeatherDisplay:10.37,2013-02-19 06:37:00,
2013-02-19 01:42:00,43.7,39.8,29.50,SSE,155,20.7,20.7,86,0.02,CLR,,0.04,0.0,WeatherDisplay:10.37,2013-02-19 06:42:00,
2013-02-19 01:47:00,43.7,39.8,29.50,South,173,21.9,21.9,86,0.01,CLR,,0.04,0.0,WeatherDisplay:10.37,2013-02-19 06:47:00,
2013-02-19 01:52:00,43.7,39.8,29.50,SSW,195,19.6,19.6,86,0.01,CLR,,0.04,0.0,WeatherDisplay:10.37,2013-02-19 06:52:00,
2013-02-19 01:57:00,43.7,40.1,29.49,SSE,149,18.4,18.4,87,0.01,CLR,,0.04,0.0,WeatherDisplay:10.37,2013-02-19 06:57:00,
2013-02-19 02:02:00,43.6,40.0,29.49,SW,215,18.4,18.4,87,0.01,CLR,,0.04,0.0,WeatherDisplay:10.37,2013-02-19 07:02:00,
2013-02-19 02:07:00,43.6,40.0,29.49,SSW,212,19.6,19.6,87,0.02,RA,,0.05,0.0,WeatherDisplay:10.37,2013-02-19 07:07:00,
2013-02-19 02:12:00,43.5,40.2,29.48,South,183,19.6,19.6,88,0.02,RA,,0.05,0.0,WeatherDisplay:10.37,2013-02-19 07:12:00,
2013-02-19 02:17:00,43.6,40.3,29.48,SSW,200,26.5,26.5,88,0.02,,,0.05,0.0,WeatherDisplay:10.37,2013-02-19 07:17:00,
2013-02-19 02:22:00,43.5,40.2,29.47,South,185,23.0,23.0,88,0.02,RA,,0.06,0.0,WeatherDisplay:10.37,2013-02-19 07:22:00,
2013-02-19 02:27:00,43.6,40.6,29.47,South,190,18.4,18.4,89,0.02,RA,,0.06,0.0,WeatherDisplay:10.37,2013-02-19 07:27:00,
2013-02-19 02:32:00,43.6,40.6,29.47,SSW,207,11.5,11.5,89,0.02,CLR,,0.06,0.0,WeatherDisplay:10.37,2013-02-19 07:32:00,
2013-02-19 02:37:00,43.5,40.5,29.46,SSW,198,23.0,23.0,89,0.03,RA,,0.07,0.0,WeatherDisplay:10.37,2013-02-19 07:37:00,
2013-02-19 02:42:00,43.4,40.4,29.46,SSW,193,11.5,11.5,89,0.03,RA,,0.07,0.0,WeatherDisplay:10.37,2013-02-19 07:42:00,
2013-02-19 02:47:00,43.4,40.4,29.45,South,172,19.6,19.6,89,0.04,RA,,0.08,0.0,WeatherDisplay:10.37,2013-02-19 07:47:00,
2013-02-19 02:52:00,43.4,40.4,29.44,SSW,200,26.5,26.5,89,0.04,RA,,0.09,0.0,WeatherDisplay:10.37,2013-02-19 07:52:00,
2013-02-19 02:57:00,43.3,40.6,29.44,SSW,192,20.0,20.0,90,0.05,RA,,0.09,0.0,WeatherDisplay:10.37,2013-02-19 07:57:00,
2013-02-19 03:02:00,43.4,40.7,29.44,SW,234,20.0,20.0,90,0.05,RA,,0.09,0.0,WeatherDisplay:10.37,2013-02-19 08:02:00,
2013-02-19 03:07:00,43.4,40.4,29.43,South,185,24.2,24.2,89,0.05,RA,,0.10,0.0,WeatherDisplay:10.37,2013-02-19 08:07:00,
2013-02-19 03:12:00,43.3,40.3,29.43,SSE,167,23.0,23.0,89,0.06,RA,,0.11,0.0,WeatherDisplay:10.37,2013-02-19 08:12:00,
2013-02-19 03:17:00,43.2,40.2,29.43,WSW,241,17.3,17.3,89,0.06,RA,,0.11,0.0,WeatherDisplay:10.37,2013-02-19 08:17:00,
2013-02-19 03:22:00,43.1,40.1,29.42,SSW,194,21.9,21.9,89,0.05,,,0.11,0.0,WeatherDisplay:10.37,2013-02-19 08:22:00,
2013-02-19 03:27:00,43.1,40.1,29.42,South,174,25.3,25.3,89,0.06,RA,,0.12,0.0,WeatherDisplay:10.37,2013-02-19 08:27:00,
2013-02-19 03:32:00,43.1,40.1,29.42,SSW,197,16.0,16.0,89,0.06,RA,,0.12,0.0,WeatherDisplay:10.37,2013-02-19 08:32:00,
2013-02-19 03:37:00,43.0,40.0,29.41,South,184,18.4,18.4,89,0.05,,,0.12,0.0,WeatherDisplay:10.37,2013-02-19 08:37:00,
2013-02-19 03:42:00,42.9,39.9,29.41,South,169,19.6,19.6,89,0.05,CLR,,0.12,0.0,WeatherDisplay:10.37,2013-02-19 08:42:00,
2013-02-19 03:47:00,42.8,40.1,29.40,SW,221,19.6,19.6,90,0.05,RA,,0.13,0.0,WeatherDisplay:10.37,2013-02-19 08:47:00,
2013-02-19 03:52:00,42.7,40.0,29.40,South,187,23.0,23.0,90,0.05,RA,,0.13,0.0,WeatherDisplay:10.37,2013-02-19 08:52:00,
2013-02-19 03:57:00,42.7,40.0,29.40,South,181,13.8,13.8,90,0.04,CLR,,0.13,0.0,WeatherDisplay:10.37,2013-02-19 08:57:00,
2013-02-19 04:02:00,42.7,40.0,29.39,South,182,19.6,19.6,90,0.04,CLR,,0.13,0.0,WeatherDisplay:10.37,2013-02-19 09:02:00,
2013-02-19 04:07:00,42.7,40.0,29.39,South,170,13.8,13.8,90,0.04,RA,,0.14,0.0,WeatherDisplay:10.37,2013-02-19 09:07:00,
2013-02-19 04:12:00,42.6,40.2,29.39,South,184,13.8,13.8,91,0.03,RA,,0.14,0.0,WeatherDisplay:10.37,2013-02-19 09:12:00,
2013-02-19 04:17:00,42.5,40.1,29.38,SSW,198,18.0,18.0,91,0.03,CLR,,0.14,0.0,WeatherDisplay:10.37,2013-02-19 09:17:00,
2013-02-19 04:22:00,42.5,40.1,29.39,South,186,15.0,15.0,91,0.04,RA,,0.15,0.0,WeatherDisplay:10.37,2013-02-19 09:22:00,
2013-02-19 04:27:00,42.6,40.2,29.38,South,174,19.6,19.6,91,0.03,RA,,0.15,0.0,WeatherDisplay:10.37,2013-02-19 09:27:00,
2013-02-19 04:32:00,42.6,40.2,29.38,SSW,212,23.0,23.0,91,0.03,CLR,,0.15,0.0,WeatherDisplay:10.37,2013-02-19 09:32:00,
2013-02-19 04:37:00,42.6,40.2,29.38,South,178,17.3,17.3,91,0.03,CLR,,0.15,0.0,WeatherDisplay:10.37,2013-02-19 09:37:00,
2013-02-19 04:42:00,42.6,40.2,29.39,South,188,13.8,13.8,91,0.04,RA,,0.16,0.0,WeatherDisplay:10.37,2013-02-19 09:42:00,
2013-02-19 04:47:00,42.5,40.3,29.39,SW,221,17.3,17.3,92,0.03,RA,,0.16,0.0,WeatherDisplay:10.37,2013-02-19 09:47:00,
2013-02-19 04:52:00,42.5,40.3,29.39,SW,222,15.0,15.0,92,0.04,RA,,0.17,0.0,WeatherDisplay:10.37,2013-02-19 09:52:00,
2013-02-19 04:57:00,42.3,40.1,29.41,SW,236,27.6,27.6,92,0.04,RA,,0.18,0.0,WeatherDisplay:10.37,2013-02-19 09:57:00,
2013-02-19 05:02:00,40.7,37.4,29.42,WSW,248,28.8,28.8,88,0.05,RA,,0.18,0.0,WeatherDisplay:10.37,2013-02-19 10:02:00,
2013-02-19 05:07:00,39.1,35.6,29.43,West,266,25.3,25.3,87,0.04,RA,,0.18,0.0,WeatherDisplay:10.37,2013-02-19 10:07:00,
2013-02-19 05:12:00,38.2,35.2,29.43,WSW,250,26.5,26.5,89,0.04,CLR,,0.18,0.0,WeatherDisplay:10.37,2013-02-19 10:12:00,
2013-02-19 05:17:00,37.6,34.4,29.44,WSW,255,20.0,20.0,88,0.04,CLR,,0.18,0.0,WeatherDisplay:10.37,2013-02-19 10:17:00,
2013-02-19 05:22:00,37.3,34.1,29.44,West,271,23.0,23.0,88,0.03,CLR,,0.18,0.0,WeatherDisplay:10.37,2013-02-19 10:22:00,
2013-02-19 05:27:00,36.9,34.0,29.44,West,269,21.0,21.0,89,0.03,CLR,,0.18,0.0,WeatherDisplay:10.37,2013-02-19 10:27:00,
2013-02-19 05:32:00,36.7,33.8,29.45,WNW,285,18.4,18.4,89,0.03,CLR,,0.18,0.0,WeatherDisplay:10.37,2013-02-19 10:32:00,
2013-02-19 05:37:00,36.5,33.6,29.45,WSW,257,20.7,20.7,89,0.03,CLR,,0.18,0.0,WeatherDisplay:10.37,2013-02-19 10:37:00,
2013-02-19 05:42:00,36.4,33.5,29.45,WSW,248,17.3,17.3,89,0.02,CLR,,0.18,0.0,WeatherDisplay:10.37,2013-02-19 10:42:00,
2013-02-19 05:47:00,36.4,33.5,29.46,West,261,31.1,31.1,89,0.02,CLR,,0.18,0.0,WeatherDisplay:10.37,2013-02-19 10:47:00,
2013-02-19 05:52:00,36.3,33.4,29.46,WSW,252,23.0,23.0,89,0.01,CLR,,0.18,0.0,WeatherDisplay:10.37,2013-02-19 10:52:00,
2013-02-19 05:57:00,36.2,33.3,29.46,WNW,283,19.6,19.6,89,0.01,CLR,,0.18,0.0,WeatherDisplay:10.37,2013-02-19 10:57:00,
2013-02-19 06:02:00,36.1,33.2,29.46,WSW,242,24.2,24.2,89,0.00,CLR,,0.18,0.0,WeatherDisplay:10.37,2013-02-19 11:02:00,
2013-02-19 06:07:00,36.0,33.1,29.46,WSW,257,17.3,17.3,89,0.00,CLR,,0.18,0.0,WeatherDisplay:10.37,2013-02-19 11:07:00,
2013-02-19 06:12:00,35.9,33.0,29.46,WSW,250,19.6,19.6,89,0.00,CLR,,0.18,0.0,WeatherDisplay:10.37,2013-02-19 11:12:00,
2013-02-19 06:17:00,35.8,32.9,29.47,WSW,251,11.5,11.5,89,0.00,CLR,,0.18,0.0,WeatherDisplay:10.37,2013-02-19 11:17:00,
2013-02-19 06:22:00,35.7,32.8,29.46,WSW,242,13.8,13.8,89,0.00,CLR,,0.18,0.0,WeatherDisplay:10.37,2013-02-19 11:22:00,
2013-02-19 06:27:00,35.6,32.7,29.46,West,267,19.6,19.6,89,0.00,CLR,,0.18,0.0,WeatherDisplay:10.37,2013-02-19 11:27:00,
2013-02-19 06:32:00,35.6,32.7,29.46,West,276,17.3,17.3,89,0.00,CLR,,0.18,0.0,WeatherDisplay:10.37,2013-02-19 11:32:00,
2013-02-19 06:37:00,35.6,32.7,29.47,West,274,11.5,11.5,89,0.00,CLR,,0.18,0.0,WeatherDisplay:10.37,2013-02-19 11:37:00,
2013-02-19 06:42:00,35.5,32.9,29.47,WSW,258,24.2,24.2,90,0.00,CLR,,0.18,0.0,WeatherDisplay:10.37,2013-02-19 11:42:00,
2013-02-19 06:47:00,35.5,32.9,29.48,WSW,245,17.3,17.3,90,0.00,CLR,,0.18,0.0,WeatherDisplay:10.37,2013-02-19 11:47:00,
2013-02-19 06:52:00,35.2,32.6,29.48,WSW,242,20.7,20.7,90,0.00,CLR,,0.18,0.0,WeatherDisplay:10.37,2013-02-19 11:52:00,
2013-02-19 06:57:00,34.9,32.3,29.48,SW,234,20.7,20.7,90,0.00,CLR,,0.18,0.0,WeatherDisplay:10.37,2013-02-19 11:57:00,
2013-02-19 07:02:00,34.7,32.1,29.49,WSW,256,16.1,16.1,90,0.00,CLR,,0.18,0.0,WeatherDisplay:10.37,2013-02-19 12:02:00,
2013-02-19 07:07:00,34.4,31.8,29.49,SSW,207,18.4,18.4,90,0.00,CLR,,0.18,0.0,WeatherDisplay:10.37,2013-02-19 12:07:00,
2013-02-19 07:12:00,34.2,31.6,29.49,WSW,239,19.6,19.6,90,0.00,CLR,,0.18,0.0,WeatherDisplay:10.37,2013-02-19 12:12:00,
2013-02-19 07:17:00,34.0,31.4,29.49,SW,226,22.0,22.0,90,0.00,CLR,,0.18,0.0,WeatherDisplay:10.37,2013-02-19 12:17:00,
2013-02-19 07:22:00,33.9,31.6,29.50,SSW,211,17.3,17.3,91,0.00,CLR,,0.18,0.0,WeatherDisplay:10.37,2013-02-19 12:22:00,
2013-02-19 07:27:00,33.7,31.4,29.50,West,264,13.8,13.8,91,0.00,CLR,,0.18,0.0,WeatherDisplay:10.37,2013-02-19 12:27:00,
2013-02-19 07:32:00,33.4,30.8,29.50,SW,224,20.7,20.7,90,0.00,CLR,,0.18,0.0,WeatherDisplay:10.37,2013-02-19 12:32:00,
2013-02-19 07:37:00,33.3,30.7,29.51,WSW,243,19.6,19.6,90,0.00,CLR,,0.18,0.0,WeatherDisplay:10.37,2013-02-19 12:37:00,
2013-02-19 07:42:00,33.3,30.4,29.51,West,271,23.0,23.0,89,0.00,CLR,,0.18,0.0,WeatherDisplay:10.37,2013-02-19 12:42:00,
2013-02-19 07:47:00,33.3,30.4,29.51,SW,221,16.1,16.1,89,0.00,CLR,,0.18,0.0,WeatherDisplay:10.37,2013-02-19 12:47:00,
2013-02-19 07:52:00,33.2,30.3,29.52,West,277,17.3,17.3,89,0.00,CLR,,0.18,0.0,WeatherDisplay:10.37,2013-02-19 12:52:00,
2013-02-19 07:57:00,33.2,30.3,29.52,West,262,17.3,17.3,89,0.00,CLR,,0.18,0.0,WeatherDisplay:10.37,2013-02-19 12:57:00,
2013-02-19 08:03:00,33.0,30.1,29.52,WSW,249,15.0,15.0,89,0.00,CLR,,0.18,0.0,WeatherDisplay:10.37,2013-02-19 13:03:00,
2013-02-19 08:08:00,32.7,29.5,29.53,WSW,254,19.6,19.6,88,0.00,CLR,,0.18,7.0,WeatherDisplay:10.37,2013-02-19 13:08:00,
2013-02-19 08:13:00,32.5,29.1,29.53,SW,220,15.0,15.0,87,0.00,CLR,,0.18,7.0,WeatherDisplay:10.37,2013-02-19 13:13:00,
2013-02-19 08:18:00,32.3,28.9,29.53,WSW,246,15.0,15.0,87,0.00,CLR,,0.18,5.0,WeatherDisplay:10.37,2013-02-19 13:18:00,
2013-02-19 08:23:00,32.0,28.6,29.53,West,267,13.8,13.8,87,0.00,CLR,,0.18,5.0,WeatherDisplay:10.37,2013-02-19 13:23:00,
2013-02-19 08:28:00,31.9,28.8,29.53,West,271,18.4,18.4,88,0.00,CLR,,0.18,7.0,WeatherDisplay:10.37,2013-02-19 13:28:00,
2013-02-19 08:33:00,31.7,28.0,29.53,West,263,24.2,24.2,86,0.00,CLR,,0.18,7.0,WeatherDisplay:10.37,2013-02-19 13:33:00,
2013-02-19 08:38:00,31.5,28.1,29.54,WSW,237,21.0,21.0,87,0.00,CLR,,0.18,9.0,WeatherDisplay:10.37,2013-02-19 13:38:00,
2013-02-19 08:43:00,31.3,27.9,29.54,WSW,245,19.6,19.6,87,0.00,CLR,,0.18,11.0,WeatherDisplay:10.37,2013-02-19 13:43:00,
2013-02-19 08:48:00,31.1,27.7,29.54,SW,229,19.6,19.6,87,0.00,CLR,,0.18,9.0,WeatherDisplay:10.37,2013-02-19 13:48:00,
2013-02-19 08:53:00,30.8,27.7,29.54,SW,219,18.4,18.4,88,0.00,CLR,,0.18,11.0,WeatherDisplay:10.37,2013-02-19 13:53:00,
2013-02-19 08:58:00,30.6,27.5,29.54,SW,223,23.0,23.0,88,0.00,CLR,,0.18,11.0,WeatherDisplay:10.37,2013-02-19 13:58:00,
2013-02-19 09:03:00,30.3,27.2,29.55,SW,234,26.5,26.5,88,0.00,OVC,,0.18,11.0,WeatherDisplay:10.37,2013-02-19 14:03:00,
2013-02-19 09:08:00,30.1,27.0,29.55,WSW,254,22.0,22.0,88,0.00,OVC,,0.18,14.0,WeatherDisplay:10.37,2013-02-19 14:08:00,
2013-02-19 09:13:00,29.9,26.5,29.55,WSW,238,26.5,26.5,87,0.00,OVC,,0.18,18.0,WeatherDisplay:10.37,2013-02-19 14:13:00,
2013-02-19 09:18:00,29.6,26.2,29.56,WSW,247,25.0,25.0,87,0.00,OVC,,0.18,18.0,WeatherDisplay:10.37,2013-02-19 14:18:00,
2013-02-19 09:23:00,29.3,25.9,29.56,West,261,15.0,15.0,87,0.00,OVC,,0.18,18.0,WeatherDisplay:10.37,2013-02-19 14:23:00,
2013-02-19 09:28:00,29.2,25.8,29.56,WSW,242,21.9,21.9,87,0.00,OVC,,0.18,18.0,WeatherDisplay:10.37,2013-02-19 14:28:00,
2013-02-19 09:33:00,29.1,25.7,29.56,SSW,213,19.6,19.6,87,0.00,OVC,,0.18,19.0,WeatherDisplay:10.37,2013-02-19 14:33:00,
2013-02-19 09:38:00,28.9,25.5,29.57,WSW,243,14.0,14.0,87,0.00,OVC,,0.18,23.0,WeatherDisplay:10.37,2013-02-19 14:38:00,
2013-02-19 09:43:00,28.7,25.0,29.57,WSW,238,25.3,25.3,86,0.00,OVC,,0.18,32.0,WeatherDisplay:10.37,2013-02-19 14:43:00,
2013-02-19 09:48:00,28.6,24.9,29.57,WNW,296,21.9,21.9,86,0.00,OVC,,0.18,21.0,WeatherDisplay:10.37,2013-02-19 14:48:00,
2013-02-19 09:53:00,28.4,24.7,29.57,West,267,21.9,21.9,86,0.00,OVC,,0.18,21.0,WeatherDisplay:10.37,2013-02-19 14:53:00,
2013-02-19 09:58:00,28.3,24.9,29.57,WSW,245,17.3,17.3,87,0.00,OVC,,0.18,23.0,WeatherDisplay:10.37,2013-02-19 14:58:00,
2013-02-19 10:03:00,28.3,24.9,29.58,West,261,16.1,16.1,87,0.00,OVC,,0.18,26.0,WeatherDisplay:10.37,2013-02-19 15:03:00,
2013-02-19 10:08:00,28.2,24.6,29.58,WSW,257,17.3,17.3,86,0.00,OVC,,0.18,37.0,WeatherDisplay:10.37,2013-02-19 15:08:00,
2013-02-19 10:13:00,28.3,24.1,29.57,WSW,242,25.3,25.3,84,0.00,OVC,,0.18,35.0,WeatherDisplay:10.37,2013-02-19 15:13:00,
2013-02-19 10:18:00,28.2,24.0,29.58,West,260,15.0,15.0,84,0.00,OVC,,0.18,51.0,WeatherDisplay:10.37,2013-02-19 15:18:00,
2013-02-19 10:23:00,28.1,23.9,29.58,West,262,19.6,19.6,84,0.00,OVC,,0.18,44.0,WeatherDisplay:10.37,2013-02-19 15:23:00,
2013-02-19 10:28:00,28.1,23.9,29.58,West,261,27.6,27.6,84,0.00,OVC,,0.18,56.0,WeatherDisplay:10.37,2013-02-19 15:28:00,
2013-02-19 10:33:00,28.0,23.5,29.58,West,273,19.6,19.6,83,0.00,OVC,,0.18,56.0,WeatherDisplay:10.37,2013-02-19 15:33:00,
2013-02-19 10:38:00,27.9,23.1,29.58,WSW,257,20.7,20.7,82,0.00,OVC,,0.18,51.0,WeatherDisplay:10.37,2013-02-19 15:38:00,
2013-02-19 10:43:00,27.8,23.0,29.59,SW,232,22.0,22.0,82,0.00,OVC,,0.18,72.0,WeatherDisplay:10.37,2013-02-19 15:43:00,
2013-02-19 10:48:00,27.6,22.2,29.59,West,264,26.5,26.5,80,0.00,OVC,,0.18,70.0,WeatherDisplay:10.37,2013-02-19 15:48:00,
2013-02-19 10:53:00,27.6,22.5,29.59,West,261,12.7,12.7,81,0.00,OVC,,0.18,90.0,WeatherDisplay:10.37,2013-02-19 15:53:00,
2013-02-19 10:58:00,27.5,22.1,29.59,SW,231,13.8,13.8,80,0.00,OVC,,0.18,121.0,WeatherDisplay:10.37,2013-02-19 15:58:00,
2013-02-19 11:03:00,27.5,21.8,29.59,WSW,241,26.0,26.0,79,0.00,OVC,,0.18,202.0,WeatherDisplay:10.37,2013-02-19 16:03:00,
2013-02-19 11:08:00,27.6,21.6,29.59,West,271,25.3,25.3,78,0.00,OVC,,0.18,186.0,WeatherDisplay:10.37,2013-02-19 16:08:00,
2013-02-19 11:13:00,27.7,21.4,29.59,WSW,240,24.2,24.2,77,0.00,OVC,,0.18,167.0,WeatherDisplay:10.37,2013-02-19 16:13:00,
2013-02-19 11:18:00,27.5,21.2,29.59,SW,231,20.7,20.7,77,0.00,OVC,,0.18,123.0,WeatherDisplay:10.37,2013-02-19 16:18:00,
2013-02-19 11:23:00,27.6,21.6,29.59,WSW,253,19.6,19.6,78,0.00,OVC,,0.18,169.0,WeatherDisplay:10.37,2013-02-19 16:23:00,
2013-02-19 11:28:00,27.5,21.2,29.60,WSW,257,18.4,18.4,77,0.00,OVC,,0.18,195.0,WeatherDisplay:10.37,2013-02-19 16:28:00,
2013-02-19 11:33:00,27.5,21.2,29.60,WSW,243,23.0,23.0,77,0.00,OVC,,0.18,167.0,WeatherDisplay:10.37,2013-02-19 16:33:00,
2013-02-19 11:38:00,27.3,21.3,29.60,WSW,238,19.6,19.6,78,0.00,OVC,,0.18,74.0,WeatherDisplay:10.37,2013-02-19 16:38:00,
2013-02-19 11:43:00,26.9,21.6,29.60,SW,232,21.9,21.9,80,0.00,OVC,,0.18,81.0,WeatherDisplay:10.37,2013-02-19 16:43:00,
2013-02-19 11:48:00,26.6,21.3,29.60,West,281,19.6,19.6,80,0.00,OVC,,0.18,172.0,WeatherDisplay:10.37,2013-02-19 16:48:00,
2013-02-19 11:53:00,26.7,20.8,29.61,SW,228,17.3,17.3,78,0.00,OVC,,0.18,123.0,WeatherDisplay:10.37,2013-02-19 16:53:00,
2013-02-19 11:58:00,26.7,21.1,29.61,SW,227,11.5,11.5,79,0.00,OVC,,0.18,160.0,WeatherDisplay:10.37,2013-02-19 16:58:00,
2013-02-19 12:03:00,26.9,21.3,29.61,West,264,20.7,20.7,79,0.00,OVC,,0.18,214.0,WeatherDisplay:10.37,2013-02-19 17:03:00,
2013-02-19 12:08:00,26.7,20.5,29.61,WSW,251,23.0,23.0,77,0.00,OVC,,0.18,223.0,WeatherDisplay:10.37,2013-02-19 17:08:00,
2013-02-19 12:13:00,26.7,20.1,29.61,West,261,27.6,27.6,76,0.00,OVC,,0.18,292.0,WeatherDisplay:10.37,2013-02-19 17:13:00,
2013-02-19 12:18:00,26.7,19.2,29.61,WSW,246,26.5,26.5,73,0.00,OVC,,0.18,255.0,WeatherDisplay:10.37,2013-02-19 17:18:00,
2013-02-19 12:23:00,26.7,19.5,29.61,SW,226,25.3,25.3,74,0.00,OVC,,0.18,165.0,WeatherDisplay:10.37,2013-02-19 17:23:00,
2013-02-19 12:28:00,26.5,20.0,29.61,WSW,242,21.9,21.9,76,0.00,OVC,,0.18,172.0,WeatherDisplay:10.37,2013-02-19 17:28:00,
2013-02-19 12:33:00,26.2,20.0,29.61,WSW,240,17.3,17.3,77,0.00,OVC,,0.18,160.0,WeatherDisplay:10.37,2013-02-19 17:33:00,
2013-02-19 12:38:00,26.1,19.6,29.62,SW,227,19.6,19.6,76,0.00,OVC,,0.18,160.0,WeatherDisplay:10.37,2013-02-19 17:38:00,
2013-02-19 12:43:00,25.7,19.5,29.62,WSW,242,23.0,23.0,77,0.00,OVC,,0.18,167.0,WeatherDisplay:10.37,2013-02-19 17:43:00,
2013-02-19 12:48:00,25.5,19.6,29.62,WSW,237,27.6,27.6,78,0.00,OVC,,0.18,141.0,WeatherDisplay:10.37,2013-02-19 17:48:00,
2013-02-19 12:53:00,25.3,19.4,29.62,SW,230,24.2,24.2,78,0.00,OVC,,0.18,207.0,WeatherDisplay:10.37,2013-02-19 17:53:00,
2013-02-19 12:58:00,25.3,19.7,29.62,WSW,237,18.4,18.4,79,0.00,OVC,,0.18,171.0,WeatherDisplay:10.37,2013-02-19 17:58:00,
2013-02-19 13:03:00,25.3,19.7,29.62,SW,224,21.9,21.9,79,0.00,OVC,,0.18,197.0,WeatherDisplay:10.37,2013-02-19 18:03:00,
2013-02-19 13:08:00,25.2,19.6,29.62,SW,222,21.9,21.9,79,0.00,OVC,,0.18,193.0,WeatherDisplay:10.37,2013-02-19 18:08:00,
2013-02-19 13:13:00,25.3,20.3,29.62,West,263,21.9,21.9,81,0.00,OVC,,0.18,192.0,WeatherDisplay:10.37,2013-02-19 18:13:00,
2013-02-19 13:18:00,25.3,19.7,29.62,WSW,240,25.3,25.3,79,0.00,OVC,,0.18,253.0,WeatherDisplay:10.37,2013-02-19 18:18:00,
2013-02-19 13:23:00,25.4,19.8,29.62,WSW,244,21.9,21.9,79,0.00,OVC,,0.18,216.0,WeatherDisplay:10.37,2013-02-19 18:23:00,
2013-02-19 13:28:00,25.4,19.5,29.62,SSW,212,23.0,23.0,78,0.00,OVC,,0.18,190.0,WeatherDisplay:10.37,2013-02-19 18:28:00,
2013-02-19 13:33:00,25.3,19.7,29.62,SW,216,18.0,18.0,79,0.00,CLR,,0.18,160.0,WeatherDisplay:10.37,2013-02-19 18:33:00,
2013-02-19 13:38:00,25.1,19.8,29.62,WSW,248,20.7,20.7,80,0.00,CLR,,0.18,172.0,WeatherDisplay:10.37,2013-02-19 18:38:00,
2013-02-19 13:43:00,25.1,20.1,29.62,SW,227,16.1,16.1,81,0.00,CLR,,0.18,141.0,WeatherDisplay:10.37,2013-02-19 18:43:00,
2013-02-19 13:48:00,24.7,20.0,29.62,SSW,201,25.3,25.3,82,0.00,CLR,,0.18,134.0,WeatherDisplay:10.37,2013-02-19 18:48:00,
2013-02-19 13:53:00,24.5,19.8,29.62,WSW,252,20.7,20.7,82,0.00,CLR,,0.18,100.0,WeatherDisplay:10.37,2013-02-19 18:53:00,
2013-02-19 13:58:00,24.4,19.7,29.63,WSW,246,19.6,19.6,82,0.00,CLR,,0.18,151.0,WeatherDisplay:10.37,2013-02-19 18:58:00,
2013-02-19 14:03:00,24.4,19.1,29.63,SSW,196,16.0,16.0,80,0.00,CLR,,0.18,169.0,WeatherDisplay:10.37,2013-02-19 19:03:00,
2013-02-19 14:08:00,24.4,18.8,29.63,WSW,240,19.6,19.6,79,0.00,CLR,,0.18,127.0,WeatherDisplay:10.37,2013-02-19 19:08:00,
2013-02-19 14:13:00,24.4,19.1,29.63,West,265,19.6,19.6,80,0.00,CLR,,0.18,127.0,WeatherDisplay:10.37,2013-02-19 19:13:00,
2013-02-19 14:18:00,24.2,18.9,29.64,SW,216,19.6,19.6,80,0.00,CLR,,0.18,134.0,WeatherDisplay:10.37,2013-02-19 19:18:00,
2013-02-19 14:23:00,24.3,19.3,29.64,West,267,23.0,23.0,81,0.00,CLR,,0.18,134.0,WeatherDisplay:10.37,2013-02-19 19:23:00,
2013-02-19 14:28:00,24.2,18.9,29.64,WSW,246,21.0,21.0,80,0.00,CLR,,0.18,98.0,WeatherDisplay:10.37,2013-02-19 19:28:00,
2013-02-19 14:33:00,24.2,18.9,29.64,WSW,238,22.0,22.0,80,0.00,SCT,,0.18,109.0,WeatherDisplay:10.37,2013-02-19 19:33:00,
2013-02-19 14:38:00,24.4,19.4,29.64,WSW,249,19.6,19.6,81,0.00,CLR,,0.18,134.0,WeatherDisplay:10.37,2013-02-19 19:38:00,
2013-02-19 14:43:00,24.6,19.3,29.64,SW,234,19.0,19.0,80,0.00,FEW,,0.18,121.0,WeatherDisplay:10.37,2013-02-19 19:43:00,
2013-02-19 14:48:00,24.6,19.6,29.65,WSW,256,24.2,24.2,81,0.00,SCT,,0.18,100.0,WeatherDisplay:10.37,2013-02-19 19:48:00,
2013-02-19 14:53:00,24.7,19.4,29.65,WSW,240,25.3,25.3,80,0.00,BKN,,0.18,79.0,WeatherDisplay:10.37,2013-02-19 19:53:00,
2013-02-19 14:58:00,24.8,19.5,29.65,SW,236,18.0,18.0,80,0.00,BKN,,0.18,63.0,WeatherDisplay:10.37,2013-02-19 19:58:00,
2013-02-19 15:03:00,24.9,18.7,29.65,West,266,26.5,26.5,77,0.00,BKN,,0.18,63.0,WeatherDisplay:10.37,2013-02-19 20:03:00,
2013-02-19 15:08:00,25.0,17.9,29.66,WSW,253,31.1,31.1,74,0.00,BKN,,0.18,72.0,WeatherDisplay:10.37,2013-02-19 20:08:00,
2013-02-19 15:13:00,25.0,18.2,29.67,West,274,20.7,20.7,75,0.00,BKN,,0.18,72.0,WeatherDisplay:10.37,2013-02-19 20:13:00,
2013-02-19 15:18:00,25.2,18.7,29.67,WSW,253,23.0,23.0,76,0.00,BKN,,0.18,69.0,WeatherDisplay:10.37,2013-02-19 20:18:00,
2013-02-19 15:23:00,25.0,17.9,29.67,WSW,255,26.0,26.0,74,0.00,BKN,,0.18,62.0,WeatherDisplay:10.37,2013-02-19 20:23:00,
2013-02-19 15:29:00,25.0,17.9,29.67,WSW,249,21.9,21.9,74,0.00,BKN,,0.18,77.0,WeatherDisplay:10.37,2013-02-19 20:29:00,
2013-02-19 15:34:00,24.9,18.1,29.67,West,268,19.6,19.6,75,0.00,BKN,,0.18,81.0,WeatherDisplay:10.37,2013-02-19 20:34:00,
2013-02-19 15:39:00,24.9,18.1,29.67,West,280,18.4,18.4,75,0.00,BKN,,0.18,114.0,WeatherDisplay:10.37,2013-02-19 20:39:00,
2013-02-19 15:44:00,25.1,18.0,29.68,WSW,257,11.5,11.5,74,0.00,BKN,,0.18,116.0,WeatherDisplay:10.37,2013-02-19 20:44:00,
2013-02-19 15:49:00,25.2,18.1,29.68,West,263,19.6,19.6,74,0.00,BKN,,0.18,86.0,WeatherDisplay:10.37,2013-02-19 20:49:00,
2013-02-19 15:54:00,25.2,18.1,29.68,WSW,250,19.6,19.6,74,0.00,BKN,,0.18,100.0,WeatherDisplay:10.37,2013-02-19 20:54:00,
2013-02-19 15:59:00,25.1,18.3,29.69,SW,229,20.0,20.0,75,0.00,BKN,,0.18,102.0,WeatherDisplay:10.37,2013-02-19 20:59:00,
2013-02-19 16:04:00,24.9,18.4,29.69,SW,229,16.1,16.1,76,0.00,BKN,,0.18,81.0,WeatherDisplay:10.37,2013-02-19 21:04:00,
2013-02-19 16:09:00,24.9,18.1,29.69,WSW,243,25.3,25.3,75,0.00,BKN,,0.18,63.0,WeatherDisplay:10.37,2013-02-19 21:09:00,
2013-02-19 16:14:00,24.8,18.3,29.69,WNW,292,18.4,18.4,76,0.00,BKN,,0.18,58.0,WeatherDisplay:10.37,2013-02-19 21:14:00,
2013-02-19 16:19:00,24.8,18.0,29.69,WSW,248,17.3,17.3,75,0.00,BKN,,0.18,56.0,WeatherDisplay:10.37,2013-02-19 21:19:00,
2013-02-19 16:24:00,25.0,17.6,29.70,West,261,19.6,19.6,73,0.00,BKN,,0.18,109.0,WeatherDisplay:10.37,2013-02-19 21:24:00,
2013-02-19 16:29:00,25.1,17.7,29.70,WSW,242,19.6,19.6,73,0.00,BKN,,0.18,97.0,WeatherDisplay:10.37,2013-02-19 21:29:00,
2013-02-19 16:34:00,25.0,17.9,29.70,WSW,245,21.9,21.9,74,0.00,BKN,,0.18,113.0,WeatherDisplay:10.37,2013-02-19 21:34:00,
2013-02-19 16:39:00,24.9,18.1,29.71,WNW,283,25.0,25.0,75,0.00,BKN,,0.18,77.0,WeatherDisplay:10.37,2013-02-19 21:39:00,
2013-02-19 16:44:00,24.6,18.1,29.71,West,259,15.0,15.0,76,0.00,BKN,,0.18,47.0,WeatherDisplay:10.37,2013-02-19 21:44:00,
2013-02-19 16:49:00,24.4,18.8,29.72,WNW,282,26.5,26.5,79,0.00,BKN,,0.18,54.0,WeatherDisplay:10.37,2013-02-19 21:49:00,
2013-02-19 16:54:00,23.8,18.8,29.73,WSW,254,24.2,24.2,81,0.00,BKN,,0.18,70.0,WeatherDisplay:10.37,2013-02-19 21:54:00,
2013-02-19 16:59:00,23.7,19.0,29.73,West,259,16.0,16.0,82,0.00,BKN,,0.18,63.0,WeatherDisplay:10.37,2013-02-19 21:59:00,
2013-02-19 17:04:00,23.6,19.2,29.73,WSW,248,23.0,23.0,83,0.00,BKN,,0.18,65.0,WeatherDisplay:10.37,2013-02-19 22:04:00,
2013-02-19 17:09:00,23.5,18.8,29.73,WSW,244,25.3,25.3,82,0.00,BKN,,0.18,47.0,WeatherDisplay:10.37,2013-02-19 22:09:00,
2013-02-19 17:14:00,23.2,18.5,29.74,West,275,27.6,27.6,82,0.00,BKN,,0.18,46.0,WeatherDisplay:10.37,2013-02-19 22:14:00,
2013-02-19 17:19:00,23.1,18.4,29.74,WSW,250,17.3,17.3,82,0.00,BKN,,0.18,33.0,WeatherDisplay:10.37,2013-02-19 22:19:00,
2013-02-19 17:24:00,23.1,18.1,29.75,WSW,253,29.9,29.9,81,0.00,CLR,,0.18,28.0,WeatherDisplay:10.37,2013-02-19 22:24:00,
2013-02-19 17:29:00,22.9,18.2,29.75,West,261,23.0,23.0,82,0.00,BKN,,0.18,32.0,WeatherDisplay:10.37,2013-02-19 22:29:00,
2013-02-19 17:34:00,22.9,17.9,29.75,West,263,18.4,18.4,81,0.00,BKN,,0.18,35.0,WeatherDisplay:10.37,2013-02-19 22:34:00,
2013-02-19 17:39:00,22.9,17.7,29.75,WNW,288,26.5,26.5,80,0.00,CLR,,0.18,26.0,WeatherDisplay:10.37,2013-02-19 22:39:00,
2013-02-19 17:44:00,22.8,17.0,29.76,West,273,26.5,26.5,78,0.00,CLR,,0.18,14.0,WeatherDisplay:10.37,2013-02-19 22:44:00,
2013-02-19 17:49:00,22.6,17.1,29.76,WNW,286,24.2,24.2,79,0.00,CLR,,0.18,12.0,WeatherDisplay:10.37,2013-02-19 22:49:00,
2013-02-19 17:54:00,22.5,17.3,29.77,WSW,254,21.9,21.9,80,0.00,CLR,,0.18,12.0,WeatherDisplay:10.37,2013-02-19 22:54:00,
2013-02-19 17:59:00,22.4,17.5,29.77,WSW,238,19.0,19.0,81,0.00,CLR,,0.18,7.0,WeatherDisplay:10.37,2013-02-19 22:59:00,
2013-02-19 18:04:00,22.3,17.1,29.77,West,263,19.6,19.6,80,0.00,CLR,,0.18,0.0,WeatherDisplay:10.37,2013-02-19 23:04:00,
2013-02-19 18:09:00,22.2,17.5,29.78,WSW,240,21.9,21.9,82,0.00,CLR,,0.18,0.0,WeatherDisplay:10.37,2013-02-19 23:09:00,
2013-02-19 18:14:00,22.0,17.6,29.78,WSW,239,18.4,18.4,83,0.00,CLR,,0.18,0.0,WeatherDisplay:10.37,2013-02-19 23:14:00,
2013-02-19 18:19:00,21.9,17.5,29.78,WSW,243,20.7,20.7,83,0.00,CLR,,0.18,0.0,WeatherDisplay:10.37,2013-02-19 23:19:00,
2013-02-19 18:24:00,21.8,17.4,29.79,WSW,254,17.3,17.3,83,0.00,CLR,,0.18,0.0,WeatherDisplay:10.37,2013-02-19 23:24:00,
2013-02-19 18:29:00,21.8,17.2,29.79,West,273,19.6,19.6,82,0.00,CLR,,0.18,0.0,WeatherDisplay:10.37,2013-02-19 23:29:00,
2013-02-19 18:34:00,21.7,17.1,29.80,WSW,249,13.0,13.0,82,0.00,CLR,,0.18,0.0,WeatherDisplay:10.37,2013-02-19 23:34:00,
2013-02-19 18:39:00,21.7,16.5,29.80,West,278,24.2,24.2,80,0.00,CLR,,0.18,0.0,WeatherDisplay:10.37,2013-02-19 23:39:00,
2013-02-19 18:44:00,21.8,16.0,29.80,West,277,20.7,20.7,78,0.00,CLR,,0.18,0.0,WeatherDisplay:10.37,2013-02-19 23:44:00,
2013-02-19 18:49:00,21.9,15.8,29.81,WSW,250,23.0,23.0,77,0.00,CLR,,0.18,0.0,WeatherDisplay:10.37,2013-02-19 23:49:00,
2013-02-19 18:54:00,21.9,15.8,29.81,West,273,17.0,17.0,77,0.00,CLR,,0.18,0.0,WeatherDisplay:10.37,2013-02-19 23:54:00,
2013-02-19 18:59:00,22.0,16.2,29.81,WSW,250,15.0,15.0,78,0.00,CLR,,0.18,0.0,WeatherDisplay:10.37,2013-02-19 23:59:00,
2013-02-19 19:04:00,21.8,16.3,29.82,WSW,250,20.0,20.0,79,0.00,CLR,,0.18,0.0,WeatherDisplay:10.37,2013-02-20 00:04:00,
2013-02-19 19:09:00,21.6,16.4,29.82,WSW,248,18.4,18.4,80,0.00,CLR,,0.18,0.0,WeatherDisplay:10.37,2013-02-20 00:09:00,
2013-02-19 19:14:00,21.4,16.2,29.83,WNW,284,20.7,20.7,80,0.00,CLR,,0.18,0.0,WeatherDisplay:10.37,2013-02-20 00:14:00,
2013-02-19 19:19:00,21.3,16.1,29.83,WNW,282,11.5,11.5,80,0.00,CLR,,0.18,0.0,WeatherDisplay:10.37,2013-02-20 00:19:00,
2013-02-19 19:24:00,21.2,15.1,29.83,WNW,295,27.6,27.6,77,0.00,CLR,,0.18,0.0,WeatherDisplay:10.37,2013-02-20 00:24:00,
2013-02-19 19:29:00,21.1,14.7,29.83,West,263,21.9,21.9,76,0.00,CLR,,0.18,0.0,WeatherDisplay:10.37,2013-02-20 00:29:00,
2013-02-19 19:34:00,21.0,14.6,29.84,SW,227,17.3,17.3,76,0.00,CLR,,0.18,0.0,WeatherDisplay:10.37,2013-02-20 00:34:00,
2013-02-19 19:39:00,21.0,14.9,29.84,West,259,18.4,18.4,77,0.00,CLR,,0.18,0.0,WeatherDisplay:10.37,2013-02-20 00:39:00,
2013-02-19 19:44:00,20.9,14.8,29.84,West,259,23.0,23.0,77,0.00,CLR,,0.18,0.0,WeatherDisplay:10.37,2013-02-20 00:44:00,
2013-02-19 19:49:00,20.7,14.3,29.84,West,272,23.0,23.0,76,0.00,CLR,,0.18,0.0,WeatherDisplay:10.37,2013-02-20 00:49:00,
2013-02-19 19:54:00,20.6,14.5,29.84,SSW,208,21.0,21.0,77,0.00,CLR,,0.18,0.0,WeatherDisplay:10.37,2013-02-20 00:54:00,
2013-02-19 19:59:00,20.6,14.5,29.85,WSW,239,20.0,20.0,77,0.00,CLR,,0.18,0.0,WeatherDisplay:10.37,2013-02-20 00:59:00,
2013-02-19 20:04:00,20.7,14.9,29.85,WSW,254,13.8,13.8,78,0.00,CLR,,0.18,0.0,WeatherDisplay:10.37,2013-02-20 01:04:00,
2013-02-19 20:09:00,20.7,14.3,29.85,West,259,19.6,19.6,76,0.00,CLR,,0.18,0.0,WeatherDisplay:10.37,2013-02-20 01:09:00,
2013-02-19 20:14:00,20.6,13.3,29.85,West,278,24.0,24.0,73,0.00,CLR,,0.18,0.0,WeatherDisplay:10.37,2013-02-20 01:14:00,
2013-02-19 20:19:00,20.4,12.5,29.85,West,278,26.5,26.5,71,0.00,CLR,,0.18,0.0,WeatherDisplay:10.37,2013-02-20 01:19:00,
2013-02-19 20:24:00,20.4,12.5,29.85,West,277,20.7,20.7,71,0.00,CLR,,0.18,0.0,WeatherDisplay:10.37,2013-02-20 01:24:00,
2013-02-19 20:29:00,20.3,12.4,29.86,West,277,19.6,19.6,71,0.00,CLR,,0.18,0.0,WeatherDisplay:10.37,2013-02-20 01:29:00,
2013-02-19 20:34:00,20.2,12.6,29.86,WNW,284,16.1,16.1,72,0.00,CLR,,0.18,0.0,WeatherDisplay:10.37,2013-02-20 01:34:00,
2013-02-19 20:39:00,20.2,12.6,29.86,West,271,16.1,16.1,72,0.00,CLR,,0.18,0.0,WeatherDisplay:10.37,2013-02-20 01:39:00,
2013-02-19 20:44:00,20.3,13.0,29.86,WNW,282,14.0,14.0,73,0.00,CLR,,0.18,0.0,WeatherDisplay:10.37,2013-02-20 01:44:00,
2013-02-19 20:49:00,20.2,12.9,29.86,SW,235,23.0,23.0,73,0.00,CLR,,0.18,0.0,WeatherDisplay:10.37,2013-02-20 01:49:00,
2013-02-19 20:54:00,19.9,12.3,29.86,West,273,20.7,20.7,72,0.00,CLR,,0.18,0.0,WeatherDisplay:10.37,2013-02-20 01:54:00,
2013-02-19 20:59:00,19.9,12.6,29.86,WNW,284,11.5,11.5,73,0.00,CLR,,0.18,0.0,WeatherDisplay:10.37,2013-02-20 01:59:00,
2013-02-19 21:04:00,19.8,12.5,29.86,West,268,23.0,23.0,73,0.00,CLR,,0.18,0.0,WeatherDisplay:10.37,2013-02-20 02:04:00,
2013-02-19 21:09:00,19.8,12.2,29.87,WNW,288,19.6,19.6,72,0.00,CLR,,0.18,0.0,WeatherDisplay:10.37,2013-02-20 02:09:00,
2013-02-19 21:14:00,19.8,12.5,29.87,West,266,12.7,12.7,73,0.00,CLR,,0.18,0.0,WeatherDisplay:10.37,2013-02-20 02:14:00,
2013-02-19 21:19:00,19.8,12.5,29.87,West,266,20.7,20.7,73,0.00,CLR,,0.18,0.0,WeatherDisplay:10.37,2013-02-20 02:19:00,
2013-02-19 21:24:00,19.8,12.5,29.88,West,259,16.1,16.1,73,0.00,CLR,,0.18,0.0,WeatherDisplay:10.37,2013-02-20 02:24:00,
2013-02-19 21:29:00,19.7,13.1,29.88,WSW,253,23.0,23.0,75,0.00,CLR,,0.18,0.0,WeatherDisplay:10.37,2013-02-20 02:29:00,
2013-02-19 21:34:00,19.6,13.6,29.88,WSW,250,14.0,14.0,77,0.00,CLR,,0.18,0.0,WeatherDisplay:10.37,2013-02-20 02:34:00,
2013-02-19 21:39:00,19.5,13.2,29.88,West,280,18.4,18.4,76,0.00,CLR,,0.18,0.0,WeatherDisplay:10.37,2013-02-20 02:39:00,
2013-02-19 21:44:00,19.4,13.4,29.88,WNW,282,19.6,19.6,77,0.00,CLR,,0.18,0.0,WeatherDisplay:10.37,2013-02-20 02:44:00,
2013-02-19 21:49:00,19.4,13.4,29.88,West,272,15.0,15.0,77,0.00,CLR,,0.18,0.0,WeatherDisplay:10.37,2013-02-20 02:49:00,
2013-02-19 21:54:00,19.4,13.4,29.88,WNW,282,19.6,19.6,77,0.00,CLR,,0.18,0.0,WeatherDisplay:10.37,2013-02-20 02:54:00,
2013-02-19 21:59:00,19.3,13.0,29.89,WSW,254,11.5,11.5,76,0.00,CLR,,0.18,0.0,WeatherDisplay:10.37,2013-02-20 02:59:00,
2013-02-19 22:04:00,19.3,13.0,29.89,WNW,288,13.8,13.8,76,0.00,CLR,,0.18,0.0,WeatherDisplay:10.37,2013-02-20 03:04:00,
2013-02-19 22:09:00,19.3,13.0,29.89,West,266,21.9,21.9,76,0.00,CLR,,0.18,0.0,WeatherDisplay:10.37,2013-02-20 03:09:00,
2013-02-19 22:14:00,19.3,13.0,29.89,WNW,285,25.3,25.3,76,0.00,CLR,,0.18,0.0,WeatherDisplay:10.37,2013-02-20 03:14:00,
2013-02-19 22:19:00,19.3,13.0,29.89,West,259,21.9,21.9,76,0.00,CLR,,0.18,0.0,WeatherDisplay:10.37,2013-02-20 03:19:00,
2013-02-19 22:24:00,19.3,13.0,29.90,NW,305,16.1,16.1,76,0.00,CLR,,0.18,0.0,WeatherDisplay:10.37,2013-02-20 03:24:00,
2013-02-19 22:29:00,19.3,13.0,29.90,WSW,249,19.6,19.6,76,0.00,CLR,,0.18,0.0,WeatherDisplay:10.37,2013-02-20 03:29:00,
2013-02-19 22:34:00,19.3,13.3,29.90,WSW,248,17.3,17.3,77,0.00,CLR,,0.18,0.0,WeatherDisplay:10.37,2013-02-20 03:34:00,
2013-02-19 22:39:00,19.2,12.9,29.90,WSW,252,19.6,19.6,76,0.00,CLR,,0.18,0.0,WeatherDisplay:10.37,2013-02-20 03:39:00,
2013-02-19 22:44:00,19.2,12.9,29.90,West,259,23.0,23.0,76,0.00,CLR,,0.18,0.0,WeatherDisplay:10.37,2013-02-20 03:44:00,
2013-02-19 22:49:00,19.2,12.9,29.90,West,277,19.0,19.0,76,0.00,CLR,,0.18,0.0,WeatherDisplay:10.37,2013-02-20 03:49:00,
2013-02-19 22:54:00,19.1,12.8,29.90,WSW,255,23.0,23.0,76,0.00,CLR,,0.18,0.0,WeatherDisplay:10.37,2013-02-20 03:54:00,
2013-02-19 22:59:00,19.0,12.7,29.90,West,277,15.0,15.0,76,0.00,CLR,,0.18,0.0,WeatherDisplay:10.37,2013-02-20 03:59:00,
2013-02-19 23:04:00,19.0,12.7,29.90,WSW,241,20.7,20.7,76,0.00,CLR,,0.18,0.0,WeatherDisplay:10.37,2013-02-20 04:04:00,
2013-02-19 23:09:00,19.0,13.0,29.90,WSW,242,16.1,16.1,77,0.00,CLR,,0.18,0.0,WeatherDisplay:10.37,2013-02-20 04:09:00,
2013-02-19 23:14:00,19.0,13.0,29.90,West,281,19.6,19.6,77,0.00,CLR,,0.18,0.0,WeatherDisplay:10.37,2013-02-20 04:14:00,
2013-02-19 23:19:00,19.0,13.0,29.90,West,262,12.7,12.7,77,0.00,CLR,,0.18,0.0,WeatherDisplay:10.37,2013-02-20 04:19:00,
2013-02-19 23:24:00,18.9,12.9,29.90,West,278,16.1,16.1,77,0.00,CLR,,0.18,0.0,WeatherDisplay:10.37,2013-02-20 04:24:00,
2013-02-19 23:29:00,18.9,13.2,29.90,West,271,16.1,16.1,78,0.00,CLR,,0.18,0.0,WeatherDisplay:10.37,2013-02-20 04:29:00,
2013-02-19 23:34:00,18.9,13.2,29.91,West,281,11.5,11.5,78,0.00,CLR,,0.18,0.0,WeatherDisplay:10.37,2013-02-20 04:34:00,
2013-02-19 23:39:00,18.9,12.9,29.91,WSW,254,20.7,20.7,77,0.00,CLR,,0.18,0.0,WeatherDisplay:10.37,2013-02-20 04:39:00,
2013-02-19 23:44:00,18.9,12.9,29.91,WNW,284,11.5,11.5,77,0.00,CLR,,0.18,0.0,WeatherDisplay:10.37,2013-02-20 04:44:00,
2013-02-19 23:49:00,18.9,12.9,29.91,West,278,15.0,15.0,77,0.00,CLR,,0.18,0.0,WeatherDisplay:10.37,2013-02-20 04:49:00,
2013-02-19 23:54:00,18.9,12.9,29.91,WNW,296,6.0,6.0,77,0.00,CLR,,0.18,0.0,WeatherDisplay:10.37,2013-02-20 04:54:00,
2013-02-19 23:59:00,18.9,12.9,29.91,WNW,302,19.6,19.6,77,0.00,CLR,,0.18,0.0,WeatherDisplay:10.37,2013-02-20 04:59:00,